Time;durP1;ratioP1;P1;durP2;ratioP2;P2;SDS_P1;SDS_P2;PMS_P1;PMS_P2;Temp;Humidity;BMP_temperature;BMP_pressure;BME280_temperature;BME280_humidity;BME280_pressure;Samples;Min_cycle;Max_cycle;Signal;HPM_P1;HPM_P2
2021/07/01 00:02:25;;;;;;;3.80;3.40;;;;;;;16.23;76.31;100286.19;4898414;29;20409;-86
2021/07/01 00:04:58;;;;;;;4.30;3.58;;;;;;;16.25;76.27;100287.53;4914407;29;20413;-86
2021/07/01 00:07:36;;;;;;;4.80;4.18;;;;;;;16.14;76.43;100288.69;4898019;29;20488;-86
2021/07/01 00:10:08;;;;;;;4.53;4.13;;;;;;;16.18;76.48;100286.22;4898288;29;20471;-86
2021/07/01 00:12:45;;;;;;;5.18;3.88;;;;;;;16.23;76.14;100288.91;4898314;29;20480;-87
2021/07/01 00:15:16;;;;;;;4.25;3.95;;;;;;;15.97;76.53;100286.38;4898275;29;20488;-87
2021/07/01 00:17:56;;;;;;;3.85;3.65;;;;;;;16.06;76.89;100281.94;4898613;29;20413;-86
2021/07/01 00:20:28;;;;;;;3.95;3.72;;;;;;;16.05;76.78;100284.94;4898535;29;20777;-86
2021/07/01 00:23:09;;;;;;;6.13;3.90;;;;;;;16.02;76.89;100277.31;4898451;29;20405;-87
2021/07/01 00:25:41;;;;;;;5.25;3.67;;;;;;;16.19;76.61;100285.94;4901143;29;20401;-86
2021/07/01 00:28:09;;;;;;;4.18;3.67;;;;;;;16.13;76.41;100278.06;4900781;29;20400;-87
2021/07/01 00:30:37;;;;;;;10.38;4.38;;;;;;;16.17;76.73;100284.59;4901809;29;20430;-86
2021/07/01 00:33:10;;;;;;;7.63;4.00;;;;;;;16.22;76.66;100284.53;4900736;29;20520;-87
2021/07/01 00:35:41;;;;;;;6.38;4.18;;;;;;;16.26;76.36;100280.97;4883934;29;20419;-87
2021/07/01 00:38:20;;;;;;;4.25;3.53;;;;;;;16.26;76.00;100283.69;4901788;29;20901;-87
2021/07/01 00:41:07;;;;;;;4.37;3.97;;;;;;;16.18;76.00;100295.22;4901129;29;20437;-86
2021/07/01 00:43:35;;;;;;;4.95;3.72;;;;;;;16.21;76.39;100297.41;4901758;29;20425;-87
2021/07/01 00:46:05;;;;;;;4.03;3.67;;;;;;;16.28;75.94;100294.34;4901492;29;20885;-87
2021/07/01 00:48:39;;;;;;;4.20;3.90;;;;;;;16.22;76.03;100298.22;4901694;29;20417;-87
2021/07/01 00:51:05;;;;;;;5.88;3.83;;;;;;;16.18;76.12;100297.97;4901418;29;20429;-87
2021/07/01 00:53:32;;;;;;;5.50;4.03;;;;;;;16.17;76.18;100290.06;4901441;29;20408;-87
2021/07/01 00:56:09;;;;;;;3.95;3.65;;;;;;;16.18;76.19;100299.88;4899411;29;20772;-87
2021/07/01 00:58:44;;;;;;;4.05;3.63;;;;;;;16.19;76.23;100282.38;4901595;29;20445;-88
2021/07/01 01:01:26;;;;;;;4.65;3.42;;;;;;;16.16;76.18;100291.16;4901265;29;20416;-87
2021/07/01 01:04:16;;;;;;;4.05;3.60;;;;;;;16.21;76.09;100286.47;4882363;29;20566;-87
2021/07/01 01:06:51;;;;;;;8.10;3.60;;;;;;;16.21;75.94;100286.47;4882074;29;20418;-87
2021/07/01 01:09:36;;;;;;;3.80;3.15;;;;;;;16.09;76.03;100294.22;4882505;29;20478;-87
2021/07/01 01:12:06;;;;;;;4.70;3.50;;;;;;;16.14;76.28;100294.16;4882147;29;20783;-87
2021/07/01 01:14:36;;;;;;;4.20;3.30;;;;;;;16.14;75.91;100293.34;4882432;29;20415;-87
2021/07/01 01:17:10;;;;;;;3.58;3.30;;;;;;;16.13;76.09;100294.47;4882416;29;20423;-86
2021/07/01 01:19:48;;;;;;;3.47;3.30;;;;;;;16.02;76.17;100300.00;4882088;29;20895;-87
2021/07/01 01:22:20;;;;;;;3.67;3.38;;;;;;;16.10;76.03;100296.66;4882182;29;20418;-87
2021/07/01 01:25:02;;;;;;;3.87;3.53;;;;;;;16.13;76.09;100300.75;4881960;29;20459;-87
2021/07/01 01:27:41;;;;;;;4.38;3.97;;;;;;;16.21;76.30;100296.56;4896313;29;20414;-87
2021/07/01 01:30:18;;;;;;;6.22;3.55;;;;;;;16.20;76.24;100295.75;4881847;29;20407;-87
2021/07/01 01:32:52;;;;;;;3.63;3.13;;;;;;;16.21;76.08;100293.84;4882327;29;20577;-87
2021/07/01 01:35:30;;;;;;;3.70;3.30;;;;;;;16.15;76.31;100284.88;4897247;29;20482;-87
2021/07/01 01:38:13;;;;;;;3.53;3.22;;;;;;;16.18;76.37;100291.69;4897083;29;20414;-87
2021/07/01 01:40:55;;;;;;;6.38;3.00;;;;;;;16.15;76.22;100290.34;4881367;29;20438;-87
2021/07/01 01:43:26;;;;;;;3.72;3.45;;;;;;;16.17;76.24;100285.38;4881569;29;20414;-87
2021/07/01 01:46:07;;;;;;;4.53;3.57;;;;;;;16.12;76.28;100288.19;4886193;29;20445;-87
2021/07/01 01:48:47;;;;;;;4.55;3.70;;;;;;;16.14;76.00;100296.06;4900182;29;20401;-87
2021/07/01 01:51:26;;;;;;;5.90;3.50;;;;;;;16.13;76.27;100286.28;4882198;29;20435;-87
2021/07/01 01:54:20;;;;;;;4.53;3.40;;;;;;;16.10;76.09;100287.66;4882429;29;20828;-87
2021/07/01 01:57:08;;;;;;;4.90;4.15;;;;;;;15.98;76.00;100281.72;4896400;29;20403;-86
2021/07/01 01:59:55;;;;;;;7.40;3.60;;;;;;;15.82;76.44;100285.66;4897812;29;20791;-86
2021/07/01 02:02:38;;;;;;;4.68;4.28;;;;;;;15.90;76.72;100287.81;4897462;29;20531;-85
2021/07/01 02:05:35;;;;;;;4.68;3.95;;;;;;;15.91;76.67;100289.41;4897290;29;20443;-86
2021/07/01 02:08:44;;;;;;;4.57;4.18;;;;;;;15.97;76.74;100289.09;4882121;29;20411;-86
2021/07/01 02:11:15;;;;;;;4.38;3.97;;;;;;;15.92;77.17;100293.78;4897708;29;20446;-86
2021/07/01 02:17:06;;;;;;;4.35;4.03;;;;;;;15.85;76.97;100296.03;4933543;29;20459;-87
2021/07/01 02:19:32;;;;;;;6.73;4.07;;;;;;;15.94;76.96;100280.66;4918754;29;20431;-88
2021/07/01 02:21:57;;;;;;;4.77;4.30;;;;;;;15.88;76.94;100295.44;4918667;29;20431;-87
2021/07/01 02:24:22;;;;;;;3.93;3.73;;;;;;;15.87;77.28;100291.91;4918665;29;20462;-88
2021/07/01 02:26:48;;;;;;;5.70;4.43;;;;;;;15.93;77.21;100299.00;4935812;29;20403;-88
2021/07/01 02:29:13;;;;;;;4.93;4.47;;;;;;;15.92;77.00;100299.25;4918527;29;20476;-87
2021/07/01 02:31:38;;;;;;;5.97;4.33;;;;;;;15.98;76.84;100289.91;4935101;29;20803;-87
2021/07/01 02:34:04;;;;;;;4.13;3.83;;;;;;;15.97;76.87;100294.56;4935435;29;20399;-86
2021/07/01 02:36:29;;;;;;;4.37;4.07;;;;;;;16.00;76.93;100294.00;4918105;29;20412;-86
2021/07/01 02:38:54;;;;;;;7.70;4.47;;;;;;;16.01;76.97;100292.91;4917917;29;20415;-87
2021/07/01 02:41:20;;;;;;;6.87;3.83;;;;;;;15.94;76.99;100294.31;4917996;29;20803;-87
2021/07/01 02:43:45;;;;;;;7.70;4.80;;;;;;;16.00;77.20;100293.19;4935112;29;20404;-87
2021/07/01 02:46:10;;;;;;;4.77;4.30;;;;;;;15.99;77.12;100307.97;4935071;29;20407;-86
2021/07/01 02:48:36;;;;;;;4.28;3.97;;;;;;;16.03;76.95;100300.81;4917111;29;20415;-87
2021/07/01 02:51:01;;;;;;;4.67;3.60;;;;;;;16.03;77.27;100306.28;4934950;29;20779;-87
2021/07/01 02:53:26;;;;;;;5.60;3.97;;;;;;;15.98;77.23;100298.94;4934904;29;20431;-87
2021/07/01 02:55:51;;;;;;;4.15;3.92;;;;;;;16.06;76.92;100309.28;4914741;29;20413;-86
2021/07/01 02:58:17;;;;;;;3.80;3.60;;;;;;;16.10;76.61;100304.84;4899026;29;20427;-87
2021/07/01 03:00:42;;;;;;;6.03;3.83;;;;;;;16.04;76.67;100295.06;4916113;29;20404;-87
2021/07/01 03:03:10;;;;;;;5.10;4.00;;;;;;;16.03;76.82;100306.28;4914871;29;20413;-86
2021/07/01 03:05:38;;;;;;;10.05;4.38;;;;;;;16.03;76.91;100298.91;4914780;29;20523;-86
2021/07/01 03:08:04;;;;;;;7.32;3.97;;;;;;;16.08;76.67;100303.50;4915830;29;20413;-88
2021/07/01 03:10:29;;;;;;;5.27;3.70;;;;;;;16.03;76.44;100300.81;4934804;29;20903;-87
2021/07/01 03:12:54;;;;;;;3.63;3.37;;;;;;;15.96;77.08;100308.53;4917875;29;20462;-87
2021/07/01 03:15:20;;;;;;;4.33;3.93;;;;;;;16.03;77.03;100317.22;4934688;29;20830;-86
2021/07/01 03:17:45;;;;;;;4.10;3.80;;;;;;;16.04;76.89;100311.47;4934929;29;20419;-86
2021/07/01 03:20:11;;;;;;;4.37;4.00;;;;;;;16.10;76.58;100302.13;4934776;29;20410;-87
2021/07/01 03:22:36;;;;;;;4.97;4.57;;;;;;;16.10;76.55;100304.84;4934639;29;20415;-86
2021/07/01 03:25:02;;;;;;;4.23;3.93;;;;;;;16.10;76.85;100304.06;4934715;29;20423;-87
2021/07/01 03:27:28;;;;;;;5.77;3.90;;;;;;;16.08;77.05;100312.53;4934643;29;20400;-87
2021/07/01 03:29:53;;;;;;;4.17;3.80;;;;;;;16.07;76.95;100307.34;4917671;29;20955;-87
2021/07/01 03:32:18;;;;;;;4.93;4.43;;;;;;;16.08;76.52;100296.13;4917504;29;20466;-87
2021/07/01 03:34:44;;;;;;;4.28;4.03;;;;;;;16.07;76.70;100310.88;4917605;29;20399;-86
2021/07/01 03:37:09;;;;;;;4.37;3.97;;;;;;;16.05;77.14;100309.56;4934566;29;20478;-87
2021/07/01 03:39:35;;;;;;;5.35;3.88;;;;;;;16.06;77.11;100313.94;4917242;29;20496;-87
2021/07/01 03:42:00;;;;;;;4.10;3.70;;;;;;;16.05;77.07;100309.56;4917473;29;20439;-86
2021/07/01 03:44:25;;;;;;;6.63;4.10;;;;;;;16.12;76.79;100301.03;4914094;29;20447;-86
2021/07/01 03:46:50;;;;;;;5.80;5.22;;;;;;;16.09;76.89;100310.63;4915912;29;20807;-86
2021/07/01 03:49:16;;;;;;;8.80;6.10;;;;;;;16.08;76.77;100308.97;4915570;29;20452;-87
2021/07/01 03:51:41;;;;;;;5.17;4.70;;;;;;;16.10;76.95;100309.53;4915331;29;20476;-87
2021/07/01 03:54:07;;;;;;;6.37;4.43;;;;;;;16.13;77.00;100308.97;4916329;29;20405;-87
2021/07/01 03:56:41;;;;;;;7.07;5.00;;;;;;;16.10;77.04;100313.06;4934310;29;20396;-87
2021/07/01 03:59:09;;;;;;;11.45;5.45;;;;;;;16.05;77.43;100312.28;4935142;29;20497;-87
2021/07/01 04:01:35;;;;;;;7.78;4.75;;;;;;;16.06;77.20;100308.47;4937974;29;20400;-87
2021/07/01 04:04:00;;;;;;;6.07;4.77;;;;;;;16.07;77.21;100307.34;4938090;29;20396;-87
2021/07/01 04:06:25;;;;;;;5.50;4.53;;;;;;;16.02;77.16;100308.22;4937692;29;20442;-87
2021/07/01 04:08:50;;;;;;;5.20;4.80;;;;;;;16.01;77.54;100312.03;4937921;29;20402;-87
2021/07/01 04:11:16;;;;;;;5.63;5.13;;;;;;;15.95;77.42;100310.44;4938011;29;20734;-87
2021/07/01 04:13:41;;;;;;;5.20;4.60;;;;;;;15.92;77.71;100311.00;4920863;29;20404;-87
2021/07/01 04:16:06;;;;;;;4.80;4.37;;;;;;;15.97;77.61;100312.91;4917517;29;20424;-87
2021/07/01 04:18:31;;;;;;;6.97;5.00;;;;;;;15.95;77.66;100317.81;4917694;29;20557;-87
2021/07/01 04:20:57;;;;;;;5.10;4.60;;;;;;;15.97;77.51;100323.84;4918584;29;20415;-88
2021/07/01 04:23:22;;;;;;;5.83;4.33;;;;;;;16.00;77.53;100321.31;4917625;29;20409;-88
2021/07/01 04:25:50;;;;;;;5.13;4.30;;;;;;;16.05;77.31;100323.22;4918791;29;20490;-87
2021/07/01 04:28:18;;;;;;;11.40;4.97;;;;;;;16.04;77.07;100324.31;4918815;29;20412;-87
2021/07/01 04:30:43;;;;;;;5.65;4.45;;;;;;;16.04;77.18;100324.31;4918683;29;20424;-88
2021/07/01 04:33:08;;;;;;;5.38;3.90;;;;;;;16.07;76.91;100326.47;4912193;29;20408;-87
2021/07/01 04:35:36;;;;;;;4.43;3.70;;;;;;;16.11;76.91;100313.88;4918231;29;20420;-86
2021/07/01 04:38:02;;;;;;;3.78;3.45;;;;;;;16.13;76.85;100319.91;4915612;29;20497;-87
2021/07/01 04:40:30;;;;;;;6.30;4.13;;;;;;;16.14;76.92;100320.69;4921817;29;20469;-87
2021/07/01 04:42:58;;;;;;;7.00;3.55;;;;;;;16.12;76.71;100326.44;4908383;29;20464;-87
2021/07/01 04:45:27;;;;;;;5.40;4.03;;;;;;;16.14;76.76;100321.50;4915230;29;20412;-86
2021/07/01 04:47:52;;;;;;;4.32;3.92;;;;;;;16.15;76.90;100314.13;4916541;29;20498;-86
2021/07/01 04:50:18;;;;;;;4.33;3.93;;;;;;;16.12;76.99;100320.97;4918190;29;20405;-88
2021/07/01 04:52:51;;;;;;;5.20;3.90;;;;;;;16.12;76.46;100320.97;4915891;29;20492;-85
2021/07/01 04:55:16;;;;;;;5.30;3.70;;;;;;;16.11;76.34;100327.53;4917860;29;20404;-87
2021/07/01 04:57:44;;;;;;;5.67;3.93;;;;;;;16.15;76.55;100325.06;4917929;29;20478;-87
2021/07/01 05:00:13;;;;;;;4.15;3.58;;;;;;;16.16;76.74;100313.84;4917702;29;20409;-86
2021/07/01 05:02:39;;;;;;;3.72;3.42;;;;;;;16.17;76.60;100322.88;4902675;29;20415;-88
2021/07/01 05:05:09;;;;;;;4.97;3.58;;;;;;;16.17;76.30;100320.16;4919316;29;20931;-89
2021/07/01 05:08:08;;;;;;;5.50;3.65;;;;;;;16.20;76.31;100320.34;4881535;29;20853;-89
2021/07/01 05:10:34;;;;;;;4.03;3.72;;;;;;;16.18;76.55;100319.03;4934602;29;20423;-88
2021/07/01 05:12:59;;;;;;;5.00;4.03;;;;;;;16.23;76.36;100313.53;4936244;29;20435;-88
2021/07/01 05:16:41;;;;;;;5.10;3.28;;;;;;;16.29;76.07;100321.41;5080484;27;20421;-88
2021/07/01 05:19:12;;;;;;;6.17;3.60;;;;;;;16.35;75.94;100328.47;5068030;28;20501;-89
2021/07/01 05:21:54;;;;;;;4.70;4.32;;;;;;;16.41;75.74;100321.84;5067706;28;20412;-90
2021/07/01 05:24:19;;;;;;;4.72;4.32;;;;;;;16.41;75.92;100323.75;5048612;28;20417;-90
2021/07/01 05:26:45;;;;;;;4.45;3.47;;;;;;;16.36;76.22;100318.34;5067948;28;20972;-92
2021/07/01 05:29:25;;;;;;;6.90;3.50;;;;;;;16.39;76.04;100310.38;5065413;28;20458;-91
2021/07/01 05:31:53;;;;;;;4.05;3.75;;;;;;;16.45;75.91;100311.16;5067432;28;20407;-91
2021/07/01 05:34:18;;;;;;;4.25;3.40;;;;;;;16.43;75.98;100307.91;5065870;28;20393;-92
2021/07/01 05:36:44;;;;;;;4.35;3.40;;;;;;;16.44;76.20;100323.19;5059275;28;20465;-89
2021/07/01 05:39:16;;;;;;;4.07;3.70;;;;;;;16.59;75.89;100317.63;5062568;28;20737;-91
2021/07/01 05:41:41;;;;;;;4.38;3.60;;;;;;;16.58;75.46;100321.44;5063674;28;20396;-92
2021/07/01 05:44:12;;;;;;;4.53;3.73;;;;;;;16.53;75.38;100319.53;5069627;28;20408;-95
2021/07/01 05:46:37;;;;;;;4.70;3.85;;;;;;;16.53;75.83;100324.22;5068450;28;20397;-94
2021/07/01 05:49:03;;;;;;;4.07;3.70;;;;;;;16.63;75.83;100328.81;5067117;28;20401;-91
2021/07/01 05:51:30;;;;;;;4.72;3.50;;;;;;;16.69;75.54;100330.38;5065825;28;20393;-90
2021/07/01 05:56:36;;;;;;;6.60;3.70;;;;;;;16.75;75.38;100335.53;5066747;28;20973;-89
2021/07/01 05:59:01;;;;;;;6.25;4.00;;;;;;;16.79;75.27;100338.50;5067002;28;20401;-90
2021/07/01 06:01:26;;;;;;;4.33;3.93;;;;;;;16.84;75.35;100335.69;5066199;28;20396;-89
2021/07/01 06:03:52;;;;;;;3.90;3.70;;;;;;;16.82;75.05;100335.19;5066912;28;20480;-89
2021/07/01 06:06:18;;;;;;;7.90;4.47;;;;;;;16.87;75.28;100340.59;5066801;28;20476;-90
2021/07/01 06:08:47;;;;;;;4.43;4.03;;;;;;;16.78;75.14;100340.41;5068109;28;20397;-88
2021/07/01 06:11:15;;;;;;;5.50;4.18;;;;;;;16.73;75.13;100343.19;5065767;28;20405;-86
2021/07/01 06:13:42;;;;;;;5.35;4.40;;;;;;;16.74;75.35;100344.81;5065505;28;20396;-89
2021/07/01 06:16:14;;;;;;;7.23;4.37;;;;;;;16.80;75.06;100340.94;5066957;28;20420;-88
2021/07/01 06:18:41;;;;;;;4.53;4.13;;;;;;;16.88;74.98;100344.97;5066155;28;20442;-89
2021/07/01 06:21:07;;;;;;;7.60;4.50;;;;;;;17.00;74.51;100346.22;5066388;28;20388;-87
2021/07/01 06:23:32;;;;;;;4.70;3.95;;;;;;;17.00;74.13;100346.22;5065796;28;20393;-90
2021/07/01 06:25:59;;;;;;;5.67;4.03;;;;;;;16.99;74.11;100354.72;5063251;28;20400;-88
2021/07/01 06:28:26;;;;;;;4.10;3.90;;;;;;;17.11;73.55;100355.13;5048211;28;20490;-88
2021/07/01 06:30:51;;;;;;;4.75;4.35;;;;;;;17.07;73.54;100352.16;5053538;28;20412;-87
2021/07/01 06:33:18;;;;;;;7.07;4.60;;;;;;;17.09;73.82;100358.16;5052824;28;22104;-88
2021/07/01 06:35:49;;;;;;;4.28;3.97;;;;;;;17.19;73.62;100356.44;5053750;28;20960;-89
2021/07/01 06:38:18;;;;;;;5.72;3.85;;;;;;;17.20;73.20;100356.13;5052670;28;20488;-89
2021/07/01 06:40:47;;;;;;;6.28;4.10;;;;;;;17.23;73.11;100360.19;5046312;28;20390;-88
2021/07/01 06:43:13;;;;;;;4.20;3.83;;;;;;;17.29;73.14;100362.59;5051722;28;20979;-88
2021/07/01 06:45:38;;;;;;;8.27;4.40;;;;;;;17.32;73.30;100363.94;5052380;28;20408;-88
2021/07/01 06:48:04;;;;;;;4.00;3.80;;;;;;;17.39;73.06;100358.91;5052393;28;20397;-89
2021/07/01 06:50:30;;;;;;;5.47;4.15;;;;;;;17.28;72.25;100366.44;5053277;28;20405;-88
2021/07/01 06:52:58;;;;;;;6.97;3.80;;;;;;;17.32;72.75;100366.69;5052958;28;20408;-87
2021/07/01 06:55:24;;;;;;;4.65;3.70;;;;;;;17.38;72.28;100365.53;5050899;28;20420;-88
2021/07/01 06:57:50;;;;;;;5.10;3.88;;;;;;;17.40;72.50;100374.25;5039564;28;20944;-88
2021/07/01 07:00:23;;;;;;;4.85;4.00;;;;;;;17.44;72.14;100372.56;5053256;28;20409;-88
2021/07/01 07:02:48;;;;;;;5.93;3.97;;;;;;;17.40;71.96;100374.25;5050245;28;20404;-88
2021/07/01 07:05:16;;;;;;;4.30;3.90;;;;;;;17.38;72.18;100365.53;5053648;28;20393;-87
2021/07/01 07:07:43;;;;;;;4.10;3.80;;;;;;;17.37;72.37;100377.56;5053851;28;20396;-88
2021/07/01 07:10:11;;;;;;;5.90;3.88;;;;;;;17.41;72.54;100376.72;5052671;28;20408;-88
2021/07/01 07:12:40;;;;;;;6.50;4.63;;;;;;;17.35;73.25;100372.41;5051252;28;20488;-87
2021/07/01 07:15:08;;;;;;;4.90;4.15;;;;;;;17.42;73.47;100377.53;5052920;28;20413;-89
2021/07/01 07:17:37;;;;;;;4.35;4.05;;;;;;;17.48;73.51;100384.56;5053564;28;20393;-94
2021/07/01 07:20:06;;;;;;;4.90;4.50;;;;;;;17.57;73.36;100385.59;5046474;28;20425;-89
2021/07/01 07:22:40;;;;;;;6.53;5.13;;;;;;;17.65;73.59;100386.88;5052059;28;20403;-87
2021/07/01 07:25:08;;;;;;;4.63;4.32;;;;;;;17.72;73.16;100387.31;5031718;28;20396;-87
2021/07/01 07:27:37;;;;;;;5.55;4.88;;;;;;;17.84;73.11;100387.72;5032784;28;20425;-88
2021/07/01 07:30:03;;;;;;;4.95;4.55;;;;;;;17.77;72.73;100390.81;5053651;28;20468;-88
2021/07/01 07:32:30;;;;;;;5.72;4.63;;;;;;;17.82;72.97;100390.75;5040161;28;20478;-88
2021/07/01 07:34:56;;;;;;;4.65;4.22;;;;;;;17.83;72.98;100397.03;5037097;28;20409;-87
2021/07/01 07:37:21;;;;;;;6.30;4.57;;;;;;;17.85;72.66;100400.31;5050935;28;20462;-87
2021/07/01 07:39:47;;;;;;;5.73;4.37;;;;;;;17.90;72.49;100387.34;5051603;28;20397;-86
2021/07/01 07:42:13;;;;;;;5.35;4.55;;;;;;;17.96;72.21;100382.59;5051912;28;20425;-87
2021/07/01 07:44:40;;;;;;;5.63;4.40;;;;;;;17.99;72.68;100377.34;5052856;28;20923;-87
2021/07/01 07:47:09;;;;;;;4.45;4.10;;;;;;;18.04;72.22;100380.03;5052327;28;20760;-87
2021/07/01 07:49:34;;;;;;;6.70;4.47;;;;;;;18.01;72.20;100380.59;5053119;28;20426;-87
2021/07/01 07:52:05;;;;;;;4.97;4.47;;;;;;;18.01;71.79;100371.59;5052835;28;20478;-87
2021/07/01 07:54:37;;;;;;;4.43;4.03;;;;;;;18.09;71.30;100373.66;5050634;28;21057;-86
2021/07/01 07:57:05;;;;;;;4.57;4.03;;;;;;;18.17;71.38;100373.00;5051942;28;20408;-85
2021/07/01 07:59:30;;;;;;;4.15;3.85;;;;;;;18.27;70.47;100374.75;5051019;28;20896;-87
2021/07/01 08:01:58;;;;;;;4.73;4.20;;;;;;;18.28;70.28;100366.22;5051276;28;20405;-87
2021/07/01 08:04:26;;;;;;;5.10;4.18;;;;;;;18.40;70.60;100374.81;5051948;28;20409;-87
2021/07/01 08:06:54;;;;;;;6.28;4.28;;;;;;;18.44;69.99;100377.78;5041329;28;20540;-89
2021/07/01 08:09:25;;;;;;;5.60;5.10;;;;;;;18.45;70.12;100380.22;5052508;28;20757;-86
2021/07/01 08:11:51;;;;;;;6.53;4.25;;;;;;;18.50;70.25;100377.44;5036543;28;20407;-87
2021/07/01 08:14:18;;;;;;;6.20;5.20;;;;;;;18.61;70.45;100376.13;5030662;28;20902;-87
2021/07/01 08:16:44;;;;;;;4.90;4.45;;;;;;;18.66;69.88;100372.50;5032686;28;20859;-87
2021/07/01 08:19:10;;;;;;;5.20;4.70;;;;;;;18.67;69.50;100384.31;5032264;28;20465;-86
2021/07/01 08:21:35;;;;;;;4.20;3.90;;;;;;;18.51;69.29;100370.81;5042042;28;20408;-87
2021/07/01 08:24:01;;;;;;;7.63;3.70;;;;;;;18.56;68.97;100381.72;5051529;28;20481;-86
2021/07/01 08:26:26;;;;;;;3.47;3.28;;;;;;;18.53;68.99;100374.09;5051976;28;20451;-86
2021/07/01 08:28:54;;;;;;;4.10;3.10;;;;;;;18.42;69.24;100388.22;5052245;28;20853;-86
2021/07/01 08:31:19;;;;;;;3.50;3.25;;;;;;;18.40;69.76;100374.81;5048715;28;20496;-87
2021/07/01 08:33:47;;;;;;;3.40;3.20;;;;;;;18.45;69.14;100382.13;5052143;28;20473;-86
2021/07/01 08:36:21;;;;;;;3.28;3.05;;;;;;;18.42;69.40;100380.81;5051972;28;20815;-87
2021/07/01 08:38:52;;;;;;;2.85;2.75;;;;;;;18.49;69.78;100385.94;5031060;28;20453;-87
2021/07/01 08:41:19;;;;;;;2.95;2.67;;;;;;;18.40;69.13;100390.47;5036850;28;20488;-86
2021/07/01 08:43:54;;;;;;;4.47;3.30;;;;;;;18.41;69.26;100386.59;5050540;28;20481;-86
2021/07/01 08:46:23;;;;;;;3.30;3.00;;;;;;;18.40;68.40;100383.06;5051827;28;20401;-86
2021/07/01 08:49:08;;;;;;;4.43;3.17;;;;;;;18.26;69.35;100393.16;5049005;28;20448;-87
2021/07/01 08:51:45;;;;;;;5.97;3.22;;;;;;;18.19;70.16;100392.69;5037641;28;20556;-87
2021/07/01 08:54:29;;;;;;;2.80;2.70;;;;;;;18.26;70.20;100395.88;5031908;28;20387;-87
2021/07/01 08:56:55;;;;;;;3.15;2.95;;;;;;;18.22;69.94;100410.47;5030467;28;20485;-86
2021/07/01 08:59:23;;;;;;;2.78;2.67;;;;;;;18.14;69.48;100407.28;5048776;28;20409;-86
2021/07/01 09:01:56;;;;;;;3.45;2.88;;;;;;;18.26;69.89;100412.34;5036391;28;20403;-86
2021/07/01 09:04:24;;;;;;;2.85;2.65;;;;;;;18.37;68.77;100415.75;5030480;28;20410;-87
2021/07/01 09:06:58;;;;;;;3.13;2.78;;;;;;;18.37;68.61;100419.31;5031690;28;20879;-85
2021/07/01 09:09:29;;;;;;;3.40;3.20;;;;;;;18.29;68.33;100422.72;5030418;28;20762;-86
2021/07/01 09:11:54;;;;;;;3.25;3.05;;;;;;;18.21;69.60;100420.63;5031757;28;20399;-86
2021/07/01 09:14:24;;;;;;;3.33;3.03;;;;;;;18.24;69.88;100428.28;5030078;28;20407;-87
2021/07/01 09:16:51;;;;;;;3.70;3.03;;;;;;;18.17;69.61;100429.75;5033133;28;20397;-87
2021/07/01 09:19:17;;;;;;;3.75;3.00;;;;;;;18.06;70.02;100426.34;5051408;28;20455;-86
2021/07/01 09:21:45;;;;;;;3.83;3.13;;;;;;;17.99;69.85;100426.69;5031976;28;20457;-86
2021/07/01 09:24:13;;;;;;;3.08;2.95;;;;;;;17.95;69.95;100430.31;5030546;28;20727;-86
2021/07/01 09:26:41;;;;;;;3.55;3.20;;;;;;;17.88;70.39;100425.19;5032566;28;20399;-86
2021/07/01 09:29:08;;;;;;;3.50;3.30;;;;;;;17.85;70.63;100434.00;5045006;28;20492;-86
2021/07/01 09:31:37;;;;;;;4.38;3.40;;;;;;;17.82;70.89;100433.78;5051605;28;20808;-86
2021/07/01 09:34:03;;;;;;;4.00;3.60;;;;;;;17.71;70.98;100435.84;5050182;28;20469;-86
2021/07/01 09:36:28;;;;;;;4.00;3.40;;;;;;;17.79;70.90;100432.44;5044077;28;20494;-87
2021/07/01 09:38:54;;;;;;;3.70;3.50;;;;;;;17.82;71.33;100431.03;5045378;28;20480;-86
2021/07/01 09:41:24;;;;;;;3.97;3.78;;;;;;;17.89;71.29;100435.06;5051405;28;20389;-86
2021/07/01 09:43:50;;;;;;;5.78;3.80;;;;;;;18.00;71.25;100430.25;5051460;28;20393;-86
2021/07/01 09:46:22;;;;;;;4.43;4.03;;;;;;;18.03;71.02;100437.91;5051377;28;20830;-86
2021/07/01 09:48:50;;;;;;;3.67;3.37;;;;;;;18.02;71.14;100431.59;5049214;28;20496;-87
2021/07/01 09:51:17;;;;;;;4.88;3.95;;;;;;;17.98;71.09;100436.03;5051202;28;20412;-87
2021/07/01 09:53:53;;;;;;;5.88;4.10;;;;;;;18.05;71.06;100438.41;5050357;28;20439;-86
2021/07/01 09:56:39;;;;;;;4.97;3.83;;;;;;;17.99;71.48;100442.34;5050109;28;20780;-86
2021/07/01 09:59:13;;;;;;;4.15;3.75;;;;;;;18.03;71.58;100440.66;5049457;28;20405;-87
2021/07/01 10:01:38;;;;;;;4.40;3.88;;;;;;;18.09;71.45;100439.47;5052324;28;20761;-86
2021/07/01 10:04:07;;;;;;;4.33;3.90;;;;;;;18.11;70.65;100440.00;5053980;28;20397;-86
2021/07/01 10:06:33;;;;;;;4.68;4.10;;;;;;;18.08;70.88;100443.31;5054105;28;20463;-87
2021/07/01 10:08:59;;;;;;;4.30;3.90;;;;;;;18.07;70.41;100437.03;5049974;28;20778;-86
2021/07/01 10:11:39;;;;;;;3.80;3.60;;;;;;;18.10;70.73;100441.09;5051287;28;20872;-86
2021/07/01 10:14:09;;;;;;;3.90;3.28;;;;;;;18.05;70.68;100441.16;5034781;28;20486;-86
2021/07/01 10:16:36;;;;;;;3.20;3.10;;;;;;;17.96;69.54;100435.53;5033144;28;20948;-87
2021/07/01 10:19:04;;;;;;;3.15;2.92;;;;;;;18.00;70.23;100450.28;5033389;28;20395;-86
2021/07/01 10:21:31;;;;;;;4.38;3.10;;;;;;;17.90;70.03;100438.63;5046940;28;20448;-86
2021/07/01 10:24:15;;;;;;;4.60;3.55;;;;;;;18.04;70.06;100439.53;5037051;28;20387;-86
2021/07/01 10:26:51;;;;;;;3.97;3.67;;;;;;;18.17;69.13;100432.50;5052259;28;20946;-89
2021/07/01 10:29:19;;;;;;;3.55;3.35;;;;;;;18.25;68.89;100438.13;5051484;28;20412;-88
2021/07/01 10:31:49;;;;;;;4.18;3.13;;;;;;;18.32;68.89;100435.84;5043249;28;20555;-88
2021/07/01 10:34:15;;;;;;;3.33;3.03;;;;;;;18.41;68.86;100441.47;5052932;28;20405;-89
2021/07/01 10:36:40;;;;;;;4.13;3.47;;;;;;;18.55;69.09;100439.66;5052913;28;20410;-88
2021/07/01 10:39:05;;;;;;;3.87;3.37;;;;;;;18.53;68.24;100431.72;5053376;28;20389;-87
2021/07/01 10:41:41;;;;;;;3.13;2.90;;;;;;;18.31;67.85;100436.16;5037210;28;20394;-88
2021/07/01 10:44:21;;;;;;;4.93;3.40;;;;;;;18.12;69.09;100431.47;5053221;28;20401;-88
2021/07/01 10:46:48;;;;;;;4.57;3.30;;;;;;;18.10;68.75;100425.47;5042039;28;20414;-89
2021/07/01 10:49:15;;;;;;;3.58;3.30;;;;;;;18.03;69.44;100429.66;5049718;28;20882;-87
2021/07/01 10:51:52;;;;;;;3.53;3.22;;;;;;;18.20;69.15;100418.19;5054022;28;20401;-86
2021/07/01 10:54:17;;;;;;;3.90;2.90;;;;;;;18.45;68.41;100417.81;5054007;28;20389;-88
2021/07/01 10:56:45;;;;;;;2.80;2.70;;;;;;;18.89;67.66;100422.91;5053010;28;20398;-87
2021/07/01 10:59:12;;;;;;;3.30;2.80;;;;;;;19.27;66.62;100416.16;5053358;28;20797;-87
2021/07/01 11:01:41;;;;;;;3.13;2.92;;;;;;;19.59;66.49;100423.56;5052469;28;20393;-87
2021/07/01 11:04:10;;;;;;;2.90;2.70;;;;;;;19.57;63.62;100423.84;5051309;28;20420;-88
2021/07/01 11:07:00;;;;;;;3.15;2.65;;;;;;;19.38;64.00;100423.09;5053269;28;20480;-88
2021/07/01 11:09:25;;;;;;;2.67;2.47;;;;;;;19.55;63.20;100428.03;5045801;28;20385;-87
2021/07/01 11:12:01;;;;;;;2.70;2.43;;;;;;;19.57;62.50;100423.84;5035654;28;20392;-87
2021/07/01 11:14:40;;;;;;;2.50;2.30;;;;;;;19.67;61.43;100434.66;5034123;28;20430;-87
2021/07/01 11:17:06;;;;;;;2.10;2.10;;;;;;;19.91;61.33;100425.38;5045579;28;20393;-88
2021/07/01 11:20:10;;;;;;;2.25;2.10;;;;;;;20.22;60.61;100426.31;5052733;28;20405;-85
2021/07/01 11:22:46;;;;;;;2.60;2.40;;;;;;;20.66;59.75;100426.44;5040960;28;20408;-88
2021/07/01 11:25:34;;;;;;;1.80;1.70;;;;;;;21.41;58.18;100422.84;5042095;28;20450;-88
2021/07/01 11:28:31;;;;;;;2.00;1.90;;;;;;;22.10;55.78;100414.81;5033310;28;20398;-87
2021/07/01 11:31:00;;;;;;;2.70;1.98;;;;;;;22.06;56.00;100411.09;5034097;28;20391;-87
2021/07/01 11:33:27;;;;;;;2.40;2.20;;;;;;;21.93;56.00;100414.78;5047733;28;20446;-88
2021/07/01 11:36:10;;;;;;;4.53;2.20;;;;;;;21.70;56.69;100401.06;5033236;28;20421;-88
2021/07/01 11:38:36;;;;;;;2.50;2.08;;;;;;;21.37;57.07;100404.53;5049592;28;20407;-88
2021/07/01 11:41:05;;;;;;;2.40;2.20;;;;;;;21.00;57.90;100405.75;5033799;28;20407;-91
2021/07/01 11:43:32;;;;;;;5.25;1.98;;;;;;;20.68;58.17;100417.88;5052387;28;20823;-87
2021/07/01 11:45:58;;;;;;;2.30;2.10;;;;;;;20.25;58.54;100411.97;5051948;28;20397;-91